Main page
METAR-TAF:

METAR-TAF

Airports :

Humberside Airport

Humberside, England

latitude: 53-35N, longitude: 000-21W, elevation: 31 m

Current weather observation

The report was made 39 minutes ago, at 19:20 UTC
Wind 5 kt from the East
Temperature 15°C
Humidity 77%
Pressure 1025 hPa
Visibility 10 km or more
no clouds below 1500 m and no cumulonimbus

METAR: EGNJ 231920Z 10005KT CAVOK 15/11 Q1025

Time: 20:59 (19:59 UTC)

Forecast

The report was made 3 hours and 4 minutes ago, at 16:55 UTC
Forecast valid from 23 at 18 UTC to 24 at 03 UTC
Wind 5 kt from the East
Visibility 10 km or more
Few clouds at a height of 4000 ft

TAF: EGNJ 231655Z 2318/2403 08005KT 9999 FEW040

Weather observations and forecasts of more than 4000 airports (METAR and TAF reports).

The available stations are represented by yellow and red dots on the map.

Hover mouse over dot to see the name of the station.

Then click to see weather observations and forecasts.

To change the map : click on the green buttons with a black cross to zoom in, on the green button with a dash to zoom out, or on the green arrows for adjacent maps.


METAR-TAF: